Peotone Weather

Nearby METAR Reports

 

KIGQ - Lansing, Illinois, USA
Distance from station: NE 19mi, 30km
Updated: Mon, 21-Jan-2019 9:15am CST
Overcast
Overcast
 Wind from ESE
Wind: ESE 9 mph , 15 km/h
Temperature: 9°F , -13°C
Wind Chill: -4°F , -20°C
Dew Point: -4°F , -20°C
Humidity: 56%
Barometer: 30.58 inHg , 1035.6 hPa
Clouds: Overcast
Visibility: 10 miles , 16 km
Cloud details: Overcast 2800 ft
2019/01/21 15:15 KIGQ 211515Z AUTO 12008KT 10SM OVC028 M13/M20 A3058 RMK AO2 T11351198
KIKK - Kankakee, Illinois, USA
Distance from station: S 19mi, 30km
Updated: Mon, 21-Jan-2019 9:15am CST
Clear
Clear
 Wind from calm
Wind: Calm
Temperature: 7°F , -14°C
Dew Point: -4°F , -20°C
Humidity: 61%
Barometer: 30.59 inHg , 1035.9 hPa
Clouds: Clear
Visibility: 10 miles , 16 km
2019/01/21 15:15 KIKK 211515Z AUTO 00000KT 10SM CLR M14/M20 A3059 RMK AO2 T11431200
 
KSJC - Joliet, Illinois, USA
Distance from station: WNW 24mi, 38km
Updated: Mon, 21-Jan-2019 8:53am CST
Few Clouds
Few Clouds
 Wind from calm
Wind: Calm
Temperature: 46°F , 8°C
Dew Point: 43°F , 6°C
Humidity: 87%
Barometer: 30.16 inHg , 1021.3 hPa
Clouds: Few Clouds
Visibility: 10 miles , 16 km
Cloud details: Few Clouds 3200 ft
2019/01/21 14:53 KSJC 211453Z 00000KT 10SM FEW032 08/06 A3016 RMK AO2 SLP214 T00780056 53015 $
KLOT - Romeoville, Illinois, USA
Distance from station: NW 26mi, 41km
Updated: Mon, 21-Jan-2019 9:15am CST
Clear
Clear
 Wind from SSE
Wind: SSE 8 mph , 13 km/h
Temperature: 9°F , -13°C
Wind Chill: -3°F , -19°C
Dew Point: -0°F , -18°C
Humidity: 66%
Barometer: 30.56 inHg , 1034.9 hPa
Clouds: Clear
Visibility: 10 miles , 16 km
2019/01/21 15:15 KLOT 211515Z AUTO 15007KT 10SM CLR M13/M18 A3056 RMK AO2 T11331176
 
KMDW - Midway Airport Chicago, Illinois, USA
Distance from station: N 31mi, 50km
Updated: Mon, 21-Jan-2019 8:53am CST
Light snow, Mostly cloudy
Light snow, Mostly cloudy
 Wind from SE
Wind: SE 9 mph , 15 km/h
Temperature: 9°F , -13°C
Wind Chill: -4°F , -20°C
Dew Point: -0°F , -18°C
Humidity: 66%
Barometer: 30.57 inHg , 1035.2 hPa
Summary: Light Snow
Clouds: Mostly cloudy
Visibility: 8 miles , 13 km
Cloud details: Few Clouds 2400 ft
Mostly cloudy 3000 ft
Mostly cloudy 25000 ft
2019/01/21 14:53 KMDW 211453Z 14008KT 8SM -SN FEW024 BKN030 BKN250 M13/M18 A3057 RMK AO2 SLP376 VIS NE 3 P0000 60000 T11281178 51018 $
KC09 - Morris, Illinois, USA
Distance from station: W 34mi, 54km
Updated: Mon, 21-Jan-2019 9:15am CST
Clear
Clear
 Wind from SE
Wind: SE 3 mph , 6 km/h
Temperature: 7°F , -14°C
Dew Point: 1°F , -17°C
Humidity: 78%
Barometer: 30.56 inHg , 1034.9 hPa
Clouds: Clear
Visibility: 10 miles , 16 km
2019/01/21 15:15 KC09 211515Z AUTO 14003KT 10SM CLR M14/M17 A3056 RMK AO2 T11381169

Metar display script from Saratoga-Weather.org